createdAt,value
2023-04-19T00:00:13.728Z,18.44
2023-04-19T00:00:45.131Z,18.44
2023-04-19T00:01:16.559Z,18.44
2023-04-19T00:01:48.051Z,18.44
2023-04-19T00:02:19.632Z,18.44
2023-04-19T00:02:51.267Z,18.45
2023-04-19T00:03:23.055Z,18.45
2023-04-19T00:03:54.695Z,18.44
2023-04-19T00:04:26.398Z,18.43
2023-04-19T00:04:58.021Z,18.43
2023-04-19T00:05:29.531Z,18.43
2023-04-19T00:06:00.972Z,18.43
2023-04-19T00:06:32.370Z,18.41
2023-04-19T00:07:03.800Z,18.43
2023-04-19T00:07:35.212Z,18.42
2023-04-19T00:08:06.604Z,18.41
2023-04-19T00:08:38.037Z,18.41
2023-04-19T00:09:09.465Z,18.42
2023-04-19T00:09:40.902Z,18.42
2023-04-19T00:10:12.301Z,18.40
2023-04-19T00:10:43.702Z,18.40
2023-04-19T00:11:15.120Z,18.40
2023-04-19T00:11:46.513Z,18.39
2023-04-19T00:12:17.950Z,18.40
2023-04-19T00:12:49.363Z,18.40
2023-04-19T00:13:20.759Z,18.40
2023-04-19T00:13:52.199Z,18.40
2023-04-19T00:14:23.589Z,18.40
2023-04-19T00:14:55.003Z,18.40
2023-04-19T00:15:26.408Z,18.39
2023-04-19T00:15:57.815Z,18.39
2023-04-19T00:16:29.293Z,18.38
2023-04-19T00:17:00.810Z,18.38
2023-04-19T00:17:32.339Z,18.37
2023-04-19T00:18:03.805Z,18.36
2023-04-19T00:18:35.250Z,18.37
2023-04-19T00:19:06.670Z,18.37
2023-04-19T00:19:38.085Z,18.38
2023-04-19T00:20:09.504Z,18.36
2023-04-19T00:20:40.914Z,18.36
2023-04-19T00:21:12.327Z,18.37
2023-04-19T00:21:43.731Z,18.36
2023-04-19T00:22:15.129Z,18.35
2023-04-19T00:22:46.572Z,18.36
2023-04-19T00:23:17.990Z,18.35
2023-04-19T00:23:49.405Z,18.35
2023-04-19T00:24:20.830Z,18.35
2023-04-19T00:24:52.241Z,18.34
2023-04-19T00:25:23.639Z,18.34
2023-04-19T00:25:55.077Z,18.32
2023-04-19T00:26:26.531Z,18.32
2023-04-19T00:26:57.924Z,18.33
2023-04-19T00:27:29.321Z,18.33
2023-04-19T00:28:00.751Z,18.33
2023-04-19T00:28:32.172Z,18.32
2023-04-19T00:29:03.582Z,18.33
2023-04-19T00:29:35.011Z,18.32
2023-04-19T00:30:06.420Z,18.32
2023-04-19T00:30:37.840Z,18.32
2023-04-19T00:31:09.295Z,18.32
2023-04-19T00:31:40.750Z,18.31
2023-04-19T00:32:12.193Z,18.31
2023-04-19T00:32:43.648Z,18.30
2023-04-19T00:33:15.167Z,18.30
2023-04-19T00:33:46.604Z,18.30
2023-04-19T00:34:18.020Z,18.29
2023-04-19T00:34:49.432Z,18.28
2023-04-19T00:35:20.872Z,18.29
2023-04-19T00:35:52.286Z,18.29
2023-04-19T00:36:23.690Z,18.29
2023-04-19T00:36:55.094Z,18.29
2023-04-19T00:37:26.478Z,18.29
2023-04-19T00:37:57.881Z,18.27
2023-04-19T00:38:29.314Z,18.28
2023-04-19T00:39:00.727Z,18.28
2023-04-19T00:39:32.129Z,18.28
2023-04-19T00:40:03.589Z,18.27
2023-04-19T00:40:34.992Z,18.27
2023-04-19T00:41:06.396Z,18.25
2023-04-19T00:41:37.809Z,18.27
2023-04-19T00:42:09.205Z,18.28
2023-04-19T00:42:40.623Z,18.27
2023-04-19T00:43:12.063Z,18.27
2023-04-19T00:43:43.489Z,18.26
2023-04-19T00:44:15.211Z,18.26
2023-04-19T00:44:46.746Z,18.25
2023-04-19T00:45:18.169Z,18.26
2023-04-19T00:45:49.614Z,18.26
2023-04-19T00:46:21.154Z,18.24
2023-04-19T00:46:52.622Z,18.25
2023-04-19T00:47:24.040Z,18.25
2023-04-19T00:47:55.501Z,18.24
2023-04-19T00:48:26.912Z,18.24
2023-04-19T00:48:58.348Z,18.24
2023-04-19T00:49:29.754Z,18.25
2023-04-19T00:50:01.151Z,18.24
2023-04-19T00:50:32.582Z,18.23
2023-04-19T00:51:04.031Z,18.24
2023-04-19T00:51:35.456Z,18.23
2023-04-19T00:52:06.863Z,18.23
2023-04-19T00:52:38.269Z,18.22
2023-04-19T00:53:09.673Z,18.22
2023-04-19T00:53:41.075Z,18.22
2023-04-19T00:54:12.629Z,18.23
2023-04-19T00:54:44.095Z,18.22
2023-04-19T00:55:15.514Z,18.22
2023-04-19T00:55:46.942Z,18.21
2023-04-19T00:56:18.343Z,18.20
2023-04-19T00:56:49.764Z,18.21
2023-04-19T00:57:21.181Z,18.20
2023-04-19T00:57:52.593Z,18.21
2023-04-19T00:58:23.996Z,18.20
2023-04-19T00:58:55.398Z,18.19
2023-04-19T00:59:26.813Z,18.18
2023-04-19T00:59:58.202Z,18.18
2023-04-19T01:00:29.614Z,18.19
2023-04-19T01:01:01.033Z,18.18
2023-04-19T01:01:32.545Z,18.19
2023-04-19T01:02:04.073Z,18.18
2023-04-19T01:02:35.700Z,18.16
2023-04-19T01:03:07.304Z,18.17
2023-04-19T01:03:39.026Z,18.16
2023-04-19T01:04:10.607Z,18.16
2023-04-19T01:04:42.064Z,18.16
2023-04-19T01:05:13.462Z,18.17
2023-04-19T01:05:44.891Z,18.16
2023-04-19T01:06:16.322Z,18.15
2023-04-19T01:06:47.712Z,18.16
2023-04-19T01:07:19.134Z,18.15
2023-04-19T01:07:50.555Z,18.15
2023-04-19T01:08:21.987Z,18.15
2023-04-19T01:08:53.406Z,18.14
2023-04-19T01:09:24.810Z,18.14
2023-04-19T01:09:56.223Z,18.12
2023-04-19T01:10:27.670Z,18.14
2023-04-19T01:10:59.063Z,18.13
2023-04-19T01:11:30.473Z,18.15
2023-04-19T01:12:01.873Z,18.13
2023-04-19T01:12:33.293Z,18.14
2023-04-19T01:13:04.700Z,18.14
2023-04-19T01:13:36.085Z,18.13
2023-04-19T01:14:07.492Z,18.13
2023-04-19T01:14:38.926Z,18.13
2023-04-19T01:15:10.366Z,18.13
2023-04-19T01:15:41.796Z,18.12
2023-04-19T01:16:13.358Z,18.14
2023-04-19T01:16:44.775Z,18.13
2023-04-19T01:17:16.181Z,18.13
2023-04-19T01:17:47.742Z,18.12
2023-04-19T01:18:19.188Z,18.13
2023-04-19T01:18:50.606Z,18.13
2023-04-19T01:19:22.020Z,18.13
2023-04-19T01:19:53.425Z,18.12
2023-04-19T01:20:24.841Z,18.11
2023-04-19T01:20:56.246Z,18.11
2023-04-19T01:21:27.686Z,18.10
2023-04-19T01:21:59.077Z,18.10
2023-04-19T01:22:30.477Z,18.10
2023-04-19T01:23:01.884Z,18.11
2023-04-19T01:23:33.304Z,18.11
2023-04-19T01:24:04.708Z,18.10
2023-04-19T01:24:36.124Z,18.11
2023-04-19T01:25:07.534Z,18.10
2023-04-19T01:25:38.936Z,18.10
2023-04-19T01:26:10.363Z,18.08
2023-04-19T01:26:41.800Z,18.08
2023-04-19T01:27:13.207Z,18.09
2023-04-19T01:27:44.614Z,18.07
2023-04-19T01:28:16.043Z,18.06
2023-04-19T01:28:47.461Z,18.07
2023-04-19T01:29:18.903Z,18.08
2023-04-19T01:29:50.291Z,18.06
2023-04-19T01:30:21.705Z,18.06
2023-04-19T01:30:53.155Z,18.08
2023-04-19T01:31:24.644Z,18.07
2023-04-19T01:31:56.100Z,18.08
2023-04-19T01:32:27.568Z,18.06
2023-04-19T01:32:59.059Z,18.07
2023-04-19T01:33:30.486Z,18.06
2023-04-19T01:34:01.895Z,18.06
2023-04-19T01:34:33.277Z,18.05
2023-04-19T01:35:04.767Z,18.05
2023-04-19T01:35:36.213Z,18.05
2023-04-19T01:36:07.647Z,18.07
2023-04-19T01:36:39.054Z,18.05
2023-04-19T01:37:10.498Z,18.05
2023-04-19T01:37:41.891Z,18.04
2023-04-19T01:38:13.285Z,18.03
2023-04-19T01:38:44.677Z,18.04
2023-04-19T01:39:16.097Z,18.04
2023-04-19T01:39:47.499Z,18.03
2023-04-19T01:40:18.948Z,18.04
2023-04-19T01:40:50.378Z,18.03
2023-04-19T01:41:21.812Z,18.03
2023-04-19T01:41:53.246Z,18.03
2023-04-19T01:42:24.710Z,18.03
2023-04-19T01:42:56.128Z,18.04
2023-04-19T01:43:27.525Z,18.03
2023-04-19T01:43:58.917Z,18.03
2023-04-19T01:44:30.337Z,18.03
2023-04-19T01:45:01.784Z,18.02
2023-04-19T01:45:33.181Z,18.03
2023-04-19T01:46:04.596Z,18.02
2023-04-19T01:46:36.047Z,18.02
2023-04-19T01:47:07.565Z,18.01
2023-04-19T01:47:39.095Z,18.00
2023-04-19T01:48:10.557Z,18.00
2023-04-19T01:48:42.038Z,17.99
2023-04-19T01:49:13.451Z,18.01
2023-04-19T01:49:44.871Z,18.00
2023-04-19T01:50:16.308Z,18.01
2023-04-19T01:50:47.723Z,17.99
2023-04-19T01:51:19.137Z,18.01
2023-04-19T01:51:50.575Z,18.00
2023-04-19T01:52:21.986Z,18.01
2023-04-19T01:52:53.462Z,17.99
2023-04-19T01:53:24.880Z,18.00
2023-04-19T01:53:56.268Z,17.99
2023-04-19T01:54:27.666Z,17.98
2023-04-19T01:54:59.063Z,18.00
2023-04-19T01:55:30.494Z,17.98
2023-04-19T01:56:01.892Z,17.98
2023-04-19T01:56:33.323Z,17.98
2023-04-19T01:57:04.747Z,17.98
2023-04-19T01:57:36.153Z,17.98
2023-04-19T01:58:07.579Z,17.97
2023-04-19T01:58:38.982Z,17.98
2023-04-19T01:59:10.366Z,17.98
2023-04-19T01:59:41.778Z,17.98
2023-04-19T02:00:13.217Z,17.98
2023-04-19T02:00:44.637Z,17.96
2023-04-19T02:01:16.103Z,17.96
2023-04-19T02:01:47.552Z,17.98
2023-04-19T02:02:19.095Z,17.96
2023-04-19T02:02:50.741Z,17.97
2023-04-19T02:03:22.312Z,17.96
2023-04-19T02:03:54.055Z,17.97
2023-04-19T02:04:25.652Z,17.95
2023-04-19T02:04:57.071Z,17.95
2023-04-19T02:05:28.485Z,17.95
2023-04-19T02:05:59.903Z,17.95
2023-04-19T02:06:31.323Z,17.94
2023-04-19T02:07:02.727Z,17.95
2023-04-19T02:07:34.130Z,17.94
2023-04-19T02:08:05.601Z,17.94
2023-04-19T02:08:37.040Z,17.94
2023-04-19T02:09:08.468Z,17.93
2023-04-19T02:09:39.881Z,17.94
2023-04-19T02:10:11.291Z,17.93
2023-04-19T02:10:42.702Z,17.93
2023-04-19T02:11:14.098Z,17.92
2023-04-19T02:11:45.497Z,17.92
2023-04-19T02:12:16.909Z,17.92
2023-04-19T02:12:48.304Z,17.92
2023-04-19T02:13:19.706Z,17.94
2023-04-19T02:13:51.142Z,17.92
2023-04-19T02:14:22.549Z,17.94
2023-04-19T02:14:53.954Z,17.91
2023-04-19T02:15:25.396Z,17.91
2023-04-19T02:15:56.816Z,17.92
2023-04-19T02:16:28.282Z,17.92
2023-04-19T02:16:59.709Z,17.91
2023-04-19T02:17:31.139Z,17.90
2023-04-19T02:18:02.655Z,17.92
2023-04-19T02:18:34.073Z,17.90
2023-04-19T02:19:05.519Z,17.91
2023-04-19T02:19:36.927Z,17.91
2023-04-19T02:20:08.328Z,17.90
2023-04-19T02:20:39.729Z,17.90
2023-04-19T02:21:11.186Z,17.89
2023-04-19T02:21:42.635Z,17.88
2023-04-19T02:22:14.079Z,17.89
2023-04-19T02:22:45.489Z,17.88
2023-04-19T02:23:16.905Z,17.89
2023-04-19T02:23:48.317Z,17.88
2023-04-19T02:24:19.764Z,17.88
2023-04-19T02:24:51.180Z,17.88
2023-04-19T02:25:22.613Z,17.88
2023-04-19T02:25:54.059Z,17.88
2023-04-19T02:26:25.488Z,17.87
2023-04-19T02:26:56.907Z,17.88
2023-04-19T02:27:28.316Z,17.89
2023-04-19T02:27:59.722Z,17.87
2023-04-19T02:28:31.123Z,17.87
2023-04-19T02:29:03.169Z,17.87
2023-04-19T02:29:35.881Z,17.87
2023-04-19T02:30:07.314Z,17.88
2023-04-19T02:30:38.749Z,17.87
2023-04-19T02:31:10.152Z,17.87
2023-04-19T02:31:41.588Z,17.87
2023-04-19T02:32:13.008Z,17.87
2023-04-19T02:32:44.526Z,17.86
2023-04-19T02:33:15.967Z,17.87
2023-04-19T02:33:47.377Z,17.85
2023-04-19T02:34:18.789Z,17.86
2023-04-19T02:34:50.269Z,17.85
2023-04-19T02:35:21.680Z,17.86
2023-04-19T02:35:53.113Z,17.86
2023-04-19T02:36:24.531Z,17.86
2023-04-19T02:36:55.951Z,17.85
2023-04-19T02:37:27.388Z,17.85
2023-04-19T02:37:58.811Z,17.84
2023-04-19T02:38:30.222Z,17.84
2023-04-19T02:39:01.657Z,17.83
2023-04-19T02:39:33.101Z,17.85
2023-04-19T02:40:04.526Z,17.85
2023-04-19T02:40:35.965Z,17.86
2023-04-19T02:41:07.370Z,17.86
2023-04-19T02:41:38.761Z,17.84
2023-04-19T02:42:10.170Z,17.85
2023-04-19T02:42:41.582Z,17.84
2023-04-19T02:43:12.969Z,17.83
2023-04-19T02:43:44.377Z,17.85
2023-04-19T02:44:16.208Z,17.83
2023-04-19T02:44:47.942Z,17.83
2023-04-19T02:45:19.352Z,17.83
2023-04-19T02:45:50.866Z,17.83
2023-04-19T02:46:22.382Z,17.82
2023-04-19T02:46:53.796Z,17.82
2023-04-19T02:47:25.201Z,17.82
2023-04-19T02:47:56.660Z,17.82
2023-04-19T02:48:28.103Z,17.82
2023-04-19T02:48:59.505Z,17.81
2023-04-19T02:49:30.910Z,17.81
2023-04-19T02:50:02.322Z,17.82
2023-04-19T02:50:33.714Z,17.81
2023-04-19T02:51:05.150Z,17.81
2023-04-19T02:51:36.558Z,17.81
2023-04-19T02:52:07.970Z,17.81
2023-04-19T02:52:39.374Z,17.81
2023-04-19T02:53:10.786Z,17.79
2023-04-19T02:53:42.226Z,17.80
2023-04-19T02:54:13.858Z,17.80
2023-04-19T02:54:45.415Z,17.80
2023-04-19T02:55:16.823Z,17.80
2023-04-19T02:55:48.234Z,17.80
2023-04-19T02:56:19.656Z,17.80
2023-04-19T02:56:51.100Z,17.81
2023-04-19T02:57:22.489Z,17.79
2023-04-19T02:57:53.900Z,17.78
2023-04-19T02:58:25.290Z,17.79
2023-04-19T02:58:56.697Z,17.79
2023-04-19T02:59:28.114Z,17.80
2023-04-19T02:59:59.529Z,17.78
2023-04-19T03:00:30.990Z,17.78
2023-04-19T03:01:02.420Z,17.77
2023-04-19T03:01:33.916Z,17.77
2023-04-19T03:02:05.391Z,17.75
2023-04-19T03:02:36.846Z,17.77
2023-04-19T03:03:08.382Z,17.76
2023-04-19T03:03:39.970Z,17.74
2023-04-19T03:04:11.441Z,17.75
2023-04-19T03:04:42.894Z,17.76
2023-04-19T03:05:14.301Z,17.76
2023-04-19T03:05:45.725Z,17.75
2023-04-19T03:06:17.120Z,17.75
2023-04-19T03:06:48.589Z,17.75
2023-04-19T03:07:19.990Z,17.75
2023-04-19T03:07:51.399Z,17.75
2023-04-19T03:08:22.805Z,17.76
2023-04-19T03:08:54.301Z,17.74
2023-04-19T03:09:25.710Z,17.75
2023-04-19T03:09:57.104Z,17.75
2023-04-19T03:10:28.526Z,17.75
2023-04-19T03:10:59.943Z,17.75
2023-04-19T03:11:31.359Z,17.74
2023-04-19T03:12:02.833Z,17.75
2023-04-19T03:12:34.243Z,17.75
2023-04-19T03:13:05.650Z,17.74
2023-04-19T03:13:37.044Z,17.75
2023-04-19T03:14:08.441Z,17.75
2023-04-19T03:14:39.845Z,17.74
2023-04-19T03:15:11.263Z,17.74
2023-04-19T03:15:42.760Z,17.73
2023-04-19T03:16:14.242Z,17.73
2023-04-19T03:16:45.668Z,17.72
2023-04-19T03:17:17.231Z,17.73
2023-04-19T03:17:48.733Z,17.73
2023-04-19T03:18:20.170Z,17.73
2023-04-19T03:18:51.576Z,17.73
2023-04-19T03:19:22.995Z,17.73
2023-04-19T03:19:54.406Z,17.73
2023-04-19T03:20:25.830Z,17.72
2023-04-19T03:20:57.235Z,17.73
2023-04-19T03:21:28.625Z,17.73
2023-04-19T03:22:00.044Z,17.71
2023-04-19T03:22:31.541Z,17.71
2023-04-19T03:23:02.953Z,17.71
2023-04-19T03:23:34.364Z,17.70
2023-04-19T03:24:05.773Z,17.71
2023-04-19T03:24:38.145Z,17.72
2023-04-19T03:25:09.721Z,17.71
2023-04-19T03:25:41.103Z,17.71
2023-04-19T03:26:12.670Z,17.70
2023-04-19T03:26:44.102Z,17.70
2023-04-19T03:27:15.522Z,17.71
2023-04-19T03:27:46.946Z,17.71
2023-04-19T03:28:18.332Z,17.70
2023-04-19T03:28:49.758Z,17.70
2023-04-19T03:29:21.146Z,17.72
2023-04-19T03:29:52.562Z,17.71
2023-04-19T03:30:23.977Z,17.70
2023-04-19T03:30:55.386Z,17.70
2023-04-19T03:31:26.850Z,17.70
2023-04-19T03:31:58.291Z,17.70
2023-04-19T03:32:29.743Z,17.70
2023-04-19T03:33:01.315Z,17.70
2023-04-19T03:33:32.782Z,17.70
2023-04-19T03:34:04.176Z,17.69
2023-04-19T03:34:35.578Z,17.68
2023-04-19T03:35:06.998Z,17.69
2023-04-19T03:35:38.405Z,17.68
2023-04-19T03:36:09.825Z,17.70
2023-04-19T03:36:41.226Z,17.70
2023-04-19T03:37:12.675Z,17.69
2023-04-19T03:37:44.083Z,17.69
2023-04-19T03:38:15.556Z,17.68
2023-04-19T03:38:46.962Z,17.69
2023-04-19T03:39:18.380Z,17.69
2023-04-19T03:39:49.783Z,17.71
2023-04-19T03:40:21.186Z,17.70
2023-04-19T03:40:52.604Z,17.70
2023-04-19T03:41:24.047Z,17.69
2023-04-19T03:41:55.462Z,17.69
2023-04-19T03:42:28.844Z,17.69
2023-04-19T03:43:00.625Z,17.69
2023-04-19T03:43:32.080Z,17.69
2023-04-19T03:44:03.519Z,17.69
2023-04-19T03:44:34.919Z,17.68
2023-04-19T03:45:06.355Z,17.68
2023-04-19T03:45:37.775Z,17.68
2023-04-19T03:46:09.214Z,17.67
2023-04-19T03:46:40.844Z,17.67
2023-04-19T03:47:12.369Z,17.67
2023-04-19T03:47:43.825Z,17.67
2023-04-19T03:48:15.257Z,17.67
2023-04-19T03:48:46.655Z,17.67
2023-04-19T03:49:18.066Z,17.67
2023-04-19T03:49:49.498Z,17.67
2023-04-19T03:50:20.890Z,17.67
2023-04-19T03:50:52.353Z,17.67
2023-04-19T03:51:23.755Z,17.67
2023-04-19T03:51:55.210Z,17.67
2023-04-19T03:52:26.618Z,17.67
2023-04-19T03:52:58.024Z,17.66
2023-04-19T03:53:29.430Z,17.66
2023-04-19T03:54:00.842Z,17.66
2023-04-19T03:54:32.261Z,17.66
2023-04-19T03:55:03.730Z,17.65
2023-04-19T03:55:35.141Z,17.66
2023-04-19T03:56:06.560Z,17.65
2023-04-19T03:56:37.958Z,17.65
2023-04-19T03:57:09.370Z,17.64
2023-04-19T03:57:40.776Z,17.63
2023-04-19T03:58:12.180Z,17.63
2023-04-19T03:58:43.610Z,17.65
2023-04-19T03:59:15.018Z,17.64
2023-04-19T03:59:46.404Z,17.65
2023-04-19T04:00:17.838Z,17.65
2023-04-19T04:00:49.260Z,17.63
2023-04-19T04:01:20.698Z,17.64
2023-04-19T04:01:52.199Z,17.63
2023-04-19T04:02:23.697Z,17.61
2023-04-19T04:02:55.432Z,17.63
2023-04-19T04:03:27.301Z,17.62
2023-04-19T04:03:59.632Z,17.61
2023-04-19T04:04:32.686Z,17.63
2023-04-19T04:05:04.373Z,17.63
2023-04-19T04:05:35.890Z,17.62
2023-04-19T04:06:07.333Z,17.63
2023-04-19T04:06:38.740Z,17.62
2023-04-19T04:07:10.144Z,17.63
2023-04-19T04:07:41.556Z,17.62
2023-04-19T04:08:12.960Z,17.62
2023-04-19T04:08:44.389Z,17.62
2023-04-19T04:09:15.797Z,17.62
2023-04-19T04:09:47.204Z,17.61
2023-04-19T04:10:18.649Z,17.62
2023-04-19T04:10:50.075Z,17.61
2023-04-19T04:11:21.491Z,17.60
2023-04-19T04:11:52.881Z,17.59
2023-04-19T04:12:24.270Z,17.61
2023-04-19T04:12:55.690Z,17.61
2023-04-19T04:13:27.088Z,17.61
2023-04-19T04:13:58.505Z,17.61
2023-04-19T04:14:29.902Z,17.61
2023-04-19T04:15:01.321Z,17.60
2023-04-19T04:15:32.713Z,17.61
2023-04-19T04:16:04.165Z,17.61
2023-04-19T04:16:35.587Z,17.60
2023-04-19T04:17:07.051Z,17.60
2023-04-19T04:17:38.483Z,17.61
2023-04-19T04:18:09.898Z,17.60
2023-04-19T04:18:41.312Z,17.61
2023-04-19T04:19:12.733Z,17.61
2023-04-19T04:19:44.121Z,17.61
2023-04-19T04:20:15.505Z,17.60
2023-04-19T04:20:46.905Z,17.60
2023-04-19T04:21:18.320Z,17.58
2023-04-19T04:21:49.742Z,17.59
2023-04-19T04:22:21.226Z,17.59
2023-04-19T04:22:52.647Z,17.59
2023-04-19T04:23:24.077Z,17.58
2023-04-19T04:23:55.466Z,17.58
2023-04-19T04:24:26.862Z,17.58
2023-04-19T04:24:58.264Z,17.58
2023-04-19T04:25:29.712Z,17.57
2023-04-19T04:26:01.129Z,17.57
2023-04-19T04:26:32.814Z,17.57
2023-04-19T04:27:04.220Z,17.57
2023-04-19T04:27:35.647Z,17.58
2023-04-19T04:28:07.046Z,17.58
2023-04-19T04:28:38.459Z,17.59
2023-04-19T04:29:09.872Z,17.60
2023-04-19T04:29:41.282Z,17.58
2023-04-19T04:30:12.711Z,17.58
2023-04-19T04:30:44.136Z,17.59
2023-04-19T04:31:15.549Z,17.59
2023-04-19T04:31:47.039Z,17.59
2023-04-19T04:32:18.469Z,17.59
2023-04-19T04:32:49.917Z,17.59
2023-04-19T04:33:21.335Z,17.58
2023-04-19T04:33:52.737Z,17.59
2023-04-19T04:34:24.135Z,17.59
2023-04-19T04:34:55.571Z,17.59
2023-04-19T04:35:26.983Z,17.59
2023-04-19T04:35:58.401Z,17.59
2023-04-19T04:36:29.870Z,17.59
2023-04-19T04:37:01.282Z,17.60
2023-04-19T04:37:32.686Z,17.60
2023-04-19T04:38:11.083Z,17.59
2023-04-19T04:38:45.723Z,17.60
2023-04-19T04:39:17.124Z,17.60
2023-04-19T04:39:48.518Z,17.59
2023-04-19T04:40:19.923Z,17.61
2023-04-19T04:40:51.314Z,17.59
2023-04-19T04:41:22.953Z,17.61
2023-04-19T04:41:54.415Z,17.61
2023-04-19T04:42:25.821Z,17.61
2023-04-19T04:42:57.243Z,17.61
2023-04-19T04:43:28.635Z,17.61
2023-04-19T04:44:12.139Z,17.62
2023-04-19T04:44:43.805Z,17.62
2023-04-19T04:45:15.213Z,17.62
2023-04-19T04:45:46.641Z,17.61
2023-04-19T04:46:18.146Z,17.62
2023-04-19T04:46:49.614Z,17.62
2023-04-19T04:47:21.090Z,17.62
2023-04-19T04:47:52.611Z,17.62
2023-04-19T04:48:24.036Z,17.62
2023-04-19T04:48:55.439Z,17.63
2023-04-19T04:49:26.863Z,17.62
2023-04-19T04:49:58.293Z,17.63
2023-04-19T04:50:29.704Z,17.64
2023-04-19T04:51:01.098Z,17.63
2023-04-19T04:51:32.503Z,17.64
2023-04-19T04:52:03.897Z,17.63
2023-04-19T04:52:35.319Z,17.64
2023-04-19T04:53:06.737Z,17.65
2023-04-19T04:53:38.169Z,17.65
2023-04-19T04:54:09.566Z,17.65
2023-04-19T04:54:40.999Z,17.66
2023-04-19T04:55:12.404Z,17.67
2023-04-19T04:55:43.851Z,17.65
2023-04-19T04:56:15.269Z,17.66
2023-04-19T04:56:46.795Z,17.67
2023-04-19T04:57:18.309Z,17.67
2023-04-19T04:57:49.738Z,17.67
2023-04-19T04:58:21.181Z,17.67
2023-04-19T04:58:52.591Z,17.67
2023-04-19T04:59:23.985Z,17.68
2023-04-19T04:59:55.387Z,17.68
2023-04-19T05:00:26.796Z,17.68
2023-04-19T05:00:58.258Z,17.69
2023-04-19T05:01:29.731Z,17.69
2023-04-19T05:02:01.245Z,17.70
2023-04-19T05:02:32.846Z,17.69
2023-04-19T05:03:04.590Z,17.69
2023-04-19T05:03:36.205Z,17.69
2023-04-19T05:04:07.752Z,17.70
2023-04-19T05:04:39.244Z,17.70
2023-04-19T05:05:10.701Z,17.71
2023-04-19T05:05:44.338Z,17.71
2023-04-19T05:06:16.424Z,17.70
2023-04-19T05:06:47.832Z,17.72
2023-04-19T05:07:19.270Z,17.72
2023-04-19T05:07:50.667Z,17.72
2023-04-19T05:08:22.103Z,17.72
2023-04-19T05:08:53.529Z,17.72
2023-04-19T05:09:24.925Z,17.73
2023-04-19T05:09:56.324Z,17.73
2023-04-19T05:10:27.719Z,17.73
2023-04-19T05:10:59.109Z,17.74
2023-04-19T05:11:30.522Z,17.73
2023-04-19T05:12:01.945Z,17.74
2023-04-19T05:12:33.365Z,17.74
2023-04-19T05:13:04.789Z,17.73
2023-04-19T05:13:36.231Z,17.74
2023-04-19T05:14:07.710Z,17.75
2023-04-19T05:14:39.134Z,17.74
2023-04-19T05:15:10.526Z,17.74
2023-04-19T05:15:41.913Z,17.75
2023-04-19T05:16:13.369Z,17.75
2023-04-19T05:16:44.872Z,17.75
2023-04-19T05:17:16.379Z,17.75
2023-04-19T05:17:47.855Z,17.76
2023-04-19T05:18:19.294Z,17.75
2023-04-19T05:18:50.739Z,17.76
2023-04-19T05:19:22.143Z,17.77
2023-04-19T05:19:53.557Z,17.75
2023-04-19T05:20:24.950Z,17.77
2023-04-19T05:20:56.336Z,17.76
2023-04-19T05:21:27.752Z,17.77
2023-04-19T05:21:59.272Z,17.76
2023-04-19T05:22:30.695Z,17.77
2023-04-19T05:23:02.128Z,17.77
2023-04-19T05:23:33.588Z,17.77
2023-04-19T05:24:05.053Z,17.77
2023-04-19T05:24:36.489Z,17.77
2023-04-19T05:25:07.888Z,17.77
2023-04-19T05:25:39.277Z,17.78
2023-04-19T05:26:10.701Z,17.78
2023-04-19T05:26:42.108Z,17.78
2023-04-19T05:27:13.496Z,17.79
2023-04-19T05:27:44.885Z,17.79
2023-04-19T05:28:16.294Z,17.78
2023-04-19T05:28:47.696Z,17.79
2023-04-19T05:29:19.132Z,17.78
2023-04-19T05:29:50.530Z,17.80
2023-04-19T05:30:21.925Z,17.80
2023-04-19T05:30:53.320Z,17.81
2023-04-19T05:31:24.756Z,17.80
2023-04-19T05:31:56.161Z,17.79
2023-04-19T05:32:27.601Z,17.80
2023-04-19T05:32:59.110Z,17.80
2023-04-19T05:33:30.553Z,17.79
2023-04-19T05:34:01.956Z,17.80
2023-04-19T05:34:33.412Z,17.79
2023-04-19T05:35:04.860Z,17.80
2023-04-19T05:35:36.356Z,17.80
2023-04-19T05:36:07.802Z,17.78
2023-04-19T05:36:39.201Z,17.79
2023-04-19T05:37:10.606Z,17.78
2023-04-19T05:37:41.995Z,17.78
2023-04-19T05:38:13.409Z,17.80
2023-04-19T05:38:44.863Z,17.78
2023-04-19T05:39:16.266Z,17.79
2023-04-19T05:39:47.687Z,17.79
2023-04-19T05:40:19.086Z,17.80
2023-04-19T05:40:50.486Z,17.79
2023-04-19T05:41:21.892Z,17.79
2023-04-19T05:41:53.321Z,17.80
2023-04-19T05:42:24.732Z,17.78
2023-04-19T05:42:56.118Z,17.79
2023-04-19T05:43:27.523Z,17.80
2023-04-19T05:43:58.963Z,17.80
2023-04-19T05:44:30.366Z,17.79
2023-04-19T05:45:02.872Z,17.80
2023-04-19T05:45:36.164Z,17.80
2023-04-19T05:46:07.625Z,17.81
2023-04-19T05:46:39.234Z,17.81
2023-04-19T05:47:10.721Z,17.81
2023-04-19T05:47:42.137Z,17.80
2023-04-19T05:48:13.554Z,17.81
2023-04-19T05:48:44.974Z,17.81
2023-04-19T05:49:16.367Z,17.81
2023-04-19T05:49:47.778Z,17.81
2023-04-19T05:50:19.218Z,17.81
2023-04-19T05:50:50.635Z,17.81
2023-04-19T05:51:22.048Z,17.81
2023-04-19T05:51:53.442Z,17.81
2023-04-19T05:52:24.900Z,17.82
2023-04-19T05:52:56.357Z,17.81
2023-04-19T05:53:27.775Z,17.82
2023-04-19T05:53:59.225Z,17.81
2023-04-19T05:54:30.692Z,17.82
2023-04-19T05:55:02.126Z,17.82
2023-04-19T05:55:33.559Z,17.82
2023-04-19T05:56:04.985Z,17.82
2023-04-19T05:56:36.389Z,17.83
2023-04-19T05:57:07.818Z,17.83
2023-04-19T05:57:39.274Z,17.83
2023-04-19T05:58:10.692Z,17.84
2023-04-19T05:58:42.136Z,17.84
2023-04-19T05:59:13.530Z,17.83
2023-04-19T05:59:44.939Z,17.84
2023-04-19T06:00:16.364Z,17.85
2023-04-19T06:00:47.805Z,17.84
2023-04-19T06:01:19.241Z,17.84
2023-04-19T06:01:50.700Z,17.84
2023-04-19T06:02:22.284Z,17.85
2023-04-19T06:02:53.871Z,17.84
2023-04-19T06:03:27.753Z,17.86
2023-04-19T06:04:02.640Z,17.87
2023-04-19T06:04:34.437Z,17.86
2023-04-19T06:05:09.967Z,17.86
2023-04-19T06:05:42.412Z,17.86
2023-04-19T06:06:14.055Z,17.87
2023-04-19T06:06:45.517Z,17.86
2023-04-19T06:07:31.009Z,17.88
2023-04-19T06:08:05.458Z,17.87
2023-04-19T06:08:36.875Z,17.89
2023-04-19T06:09:08.273Z,17.88
2023-04-19T06:09:39.689Z,17.89
2023-04-19T06:10:11.112Z,17.89
2023-04-19T06:11:28.947Z,17.89
2023-04-19T06:12:06.472Z,17.89
2023-04-19T06:12:37.884Z,17.89
2023-04-19T06:13:09.298Z,17.90
2023-04-19T06:13:40.689Z,17.90
2023-04-19T06:14:12.103Z,17.91
2023-04-19T06:14:43.516Z,17.91
2023-04-19T06:15:14.953Z,17.91
2023-04-19T06:15:46.536Z,17.91
2023-04-19T06:16:18.119Z,17.91
2023-04-19T06:16:49.583Z,17.91
2023-04-19T06:17:21.008Z,17.92
2023-04-19T06:17:52.460Z,17.93
2023-04-19T06:18:23.882Z,17.92
2023-04-19T06:18:55.292Z,17.92
2023-04-19T06:19:26.707Z,17.94
2023-04-19T06:19:58.109Z,17.94
2023-04-19T06:20:29.594Z,17.93
2023-04-19T06:21:01.080Z,17.94
2023-04-19T06:21:32.517Z,17.94
2023-04-19T06:22:03.941Z,17.95
2023-04-19T06:22:35.364Z,17.95
2023-04-19T06:23:06.813Z,17.96
2023-04-19T06:23:38.222Z,17.97
2023-04-19T06:24:09.636Z,17.97
2023-04-19T06:24:41.048Z,17.96
2023-04-19T06:25:12.461Z,17.97
2023-04-19T06:25:43.897Z,17.97
2023-04-19T06:26:15.318Z,17.98
2023-04-19T06:26:46.742Z,17.98
2023-04-19T06:27:18.177Z,17.97
2023-04-19T06:27:49.590Z,17.98
2023-04-19T06:28:21.014Z,17.98
2023-04-19T06:28:52.414Z,17.99
2023-04-19T06:29:23.803Z,17.99
2023-04-19T06:29:55.187Z,18.00
2023-04-19T06:30:26.590Z,17.99
2023-04-19T06:30:58.026Z,17.99
2023-04-19T06:31:29.497Z,17.99
2023-04-19T06:32:00.948Z,18.00
2023-04-19T06:32:32.466Z,18.00
2023-04-19T06:33:03.972Z,18.00
2023-04-19T06:33:35.391Z,18.01
2023-04-19T06:34:06.798Z,18.02
2023-04-19T06:34:38.209Z,18.01
2023-04-19T06:35:09.627Z,18.01
2023-04-19T06:35:41.019Z,18.01
2023-04-19T06:36:12.457Z,18.03
2023-04-19T06:36:43.876Z,18.02
2023-04-19T06:37:15.275Z,18.02
2023-04-19T06:37:46.689Z,18.02
2023-04-19T06:38:18.103Z,18.03
2023-04-19T06:38:49.510Z,18.03
2023-04-19T06:39:20.930Z,18.04
2023-04-19T06:39:52.385Z,18.04
2023-04-19T06:40:24.061Z,18.03
2023-04-19T06:40:55.556Z,18.04
2023-04-19T06:41:27.008Z,18.04
2023-04-19T06:41:58.483Z,18.05
2023-04-19T06:42:29.893Z,18.05
2023-04-19T06:43:01.418Z,18.06
2023-04-19T06:43:32.812Z,18.05
2023-04-19T06:44:04.221Z,18.05
2023-04-19T06:44:35.626Z,18.05
2023-04-19T06:45:07.061Z,18.05
2023-04-19T06:45:38.607Z,18.06
2023-04-19T06:46:10.138Z,18.06
2023-04-19T06:46:41.579Z,18.06